Time;durP1;ratioP1;P1;durP2;ratioP2;P2;SDS_P1;SDS_P2;PMS_P1;PMS_P2;Temp;Humidity;BMP_temperature;BMP_pressure;BME280_temperature;BME280_humidity;BME280_pressure;Samples;Min_cycle;Max_cycle;Signal;HPM_P1;HPM_P2
2021/08/27 00:00:36;;;;;;;;;;;24.60;44.80;;;;;;491482;240;2179;-73
2021/08/27 00:02:38;;;;;;;;;;;24.60;45.00;;;;;;491536;240;1066;-73
2021/08/27 00:04:39;;;;;;;;;;;24.70;44.60;;;;;;491611;240;976;-72
2021/08/27 00:06:40;;;;;;;;;;;24.60;44.80;;;;;;491600;240;1193;-73
2021/08/27 00:08:42;;;;;;;;;;;24.70;44.60;;;;;;491551;240;1054;-73
2021/08/27 00:10:43;;;;;;;;;;;24.50;45.30;;;;;;491571;240;976;-73
2021/08/27 00:12:44;;;;;;;;;;;24.50;45.10;;;;;;491503;240;1150;-73
2021/08/27 00:14:46;;;;;;;;;;;24.80;44.70;;;;;;491508;240;1011;-73
2021/08/27 00:16:47;;;;;;;;;;;24.50;45.00;;;;;;491475;240;1216;-73
2021/08/27 00:18:48;;;;;;;;;;;24.80;44.80;;;;;;491601;240;1120;-73
2021/08/27 00:20:50;;;;;;;;;;;24.30;45.90;;;;;;491563;240;2161;-73
2021/08/27 00:22:51;;;;;;;;;;;24.80;45.00;;;;;;491557;240;1166;-73
2021/08/27 00:24:52;;;;;;;;;;;24.80;44.90;;;;;;491544;240;996;-73
2021/08/27 00:26:53;;;;;;;;;;;24.50;45.40;;;;;;491546;240;1195;-73
2021/08/27 00:28:55;;;;;;;;;;;24.40;45.50;;;;;;491575;240;1065;-73
2021/08/27 00:30:57;;;;;;;;;;;24.30;45.70;;;;;;491654;240;1214;-73
2021/08/27 00:32:57;;;;;;;;;;;24.40;45.90;;;;;;491621;240;1362;-73
2021/08/27 00:34:59;;;;;;;;;;;24.30;45.90;;;;;;491590;240;1316;-73
2021/08/27 00:37:01;;;;;;;;;;;24.60;45.10;;;;;;491542;240;1167;-73
2021/08/27 00:39:02;;;;;;;;;;;24.70;45.30;;;;;;491632;240;993;-73
2021/08/27 00:41:03;;;;;;;;;;;24.40;45.40;;;;;;491580;240;2168;-73
2021/08/27 00:43:05;;;;;;;;;;;24.80;45.20;;;;;;491600;240;1085;-73
2021/08/27 00:45:06;;;;;;;;;;;24.40;45.80;;;;;;491578;240;1048;-73
2021/08/27 00:47:07;;;;;;;;;;;24.80;45.30;;;;;;491554;240;1214;-73
2021/08/27 00:49:08;;;;;;;;;;;24.50;45.80;;;;;;491544;240;1137;-73
2021/08/27 00:51:10;;;;;;;;;;;24.30;45.60;;;;;;491527;240;1204;-73
2021/08/27 00:53:11;;;;;;;;;;;24.50;46.00;;;;;;491559;240;1191;-73
2021/08/27 00:55:13;;;;;;;;;;;24.70;45.30;;;;;;491687;240;1053;-73
2021/08/27 00:57:14;;;;;;;;;;;24.50;45.50;;;;;;491592;240;1244;-73
2021/08/27 00:59:15;;;;;;;;;;;24.60;45.40;;;;;;491614;240;1189;-73
2021/08/27 01:01:17;;;;;;;;;;;24.30;46.40;;;;;;491515;240;2117;-73
2021/08/27 01:03:18;;;;;;;;;;;23.90;46.40;;;;;;491582;240;971;-73
2021/08/27 01:05:19;;;;;;;;;;;24.50;46.00;;;;;;491578;240;1056;-73
2021/08/27 01:07:21;;;;;;;;;;;23.90;46.30;;;;;;491588;240;1144;-73
2021/08/27 01:09:22;;;;;;;;;;;24.50;46.20;;;;;;491589;240;1040;-73
2021/08/27 01:11:23;;;;;;;;;;;24.30;46.50;;;;;;491564;240;1025;-73
2021/08/27 01:13:25;;;;;;;;;;;24.40;45.80;;;;;;491564;240;1035;-73
2021/08/27 01:15:26;;;;;;;;;;;24.50;45.90;;;;;;491660;240;1111;-73
2021/08/27 01:17:27;;;;;;;;;;;24.40;45.70;;;;;;491501;240;1204;-73
2021/08/27 01:19:29;;;;;;;;;;;24.60;45.70;;;;;;491495;240;964;-73
2021/08/27 01:21:30;;;;;;;;;;;24.30;45.60;;;;;;491468;240;2144;-73
2021/08/27 01:23:32;;;;;;;;;;;24.50;45.80;;;;;;491578;240;1283;-73
2021/08/27 01:25:33;;;;;;;;;;;24.70;45.30;;;;;;491529;240;1181;-73
2021/08/27 01:27:34;;;;;;;;;;;24.40;46.30;;;;;;491574;240;1081;-73
2021/08/27 01:29:35;;;;;;;;;;;24.00;46.30;;;;;;491569;240;981;-73
2021/08/27 01:31:37;;;;;;;;;;;23.90;47.30;;;;;;491498;240;1092;-73
2021/08/27 01:33:38;;;;;;;;;;;23.60;47.00;;;;;;491678;240;1046;-73
2021/08/27 01:35:40;;;;;;;;;;;24.10;46.90;;;;;;491566;240;1171;-73
2021/08/27 01:37:41;;;;;;;;;;;24.40;46.20;;;;;;491573;240;1120;-73
2021/08/27 01:39:42;;;;;;;;;;;24.10;46.60;;;;;;491552;240;946;-73
2021/08/27 01:41:43;;;;;;;;;;;24.00;46.60;;;;;;491485;240;2109;-73
2021/08/27 01:43:45;;;;;;;;;;;24.20;46.50;;;;;;491589;240;1138;-73
2021/08/27 01:45:46;;;;;;;;;;;23.50;48.10;;;;;;491551;240;1328;-73
2021/08/27 01:47:48;;;;;;;;;;;23.90;47.40;;;;;;491514;240;1113;-73
2021/08/27 01:49:49;;;;;;;;;;;23.30;48.40;;;;;;491583;240;1073;-73
2021/08/27 01:51:50;;;;;;;;;;;23.70;47.50;;;;;;491504;240;1218;-73
2021/08/27 01:53:52;;;;;;;;;;;23.80;47.80;;;;;;491600;240;1141;-73
2021/08/27 01:55:53;;;;;;;;;;;23.90;47.40;;;;;;491587;240;1034;-73
2021/08/27 01:57:55;;;;;;;;;;;23.70;47.70;;;;;;491582;240;1163;-73
2021/08/27 01:59:56;;;;;;;;;;;23.40;48.20;;;;;;491581;240;1102;-73
2021/08/27 02:01:58;;;;;;;;;;;23.70;48.10;;;;;;491518;240;1106;-73
2021/08/27 02:03:59;;;;;;;;;;;23.10;48.60;;;;;;491555;240;1196;-73
2021/08/27 02:06:00;;;;;;;;;;;23.40;48.70;;;;;;491558;240;1071;-73
2021/08/27 02:08:01;;;;;;;;;;;23.60;48.60;;;;;;491505;240;1505;-73
2021/08/27 02:10:03;;;;;;;;;;;23.50;48.20;;;;;;491528;240;1025;-73
2021/08/27 02:12:04;;;;;;;;;;;23.30;48.80;;;;;;491549;240;1151;-73
2021/08/27 02:14:05;;;;;;;;;;;23.10;49.00;;;;;;491574;240;1136;-73
2021/08/27 02:16:09;;;;;;;;;;;23.00;49.20;;;;;;491583;240;1166;-73
2021/08/27 02:18:08;;;;;;;;;;;23.80;48.10;;;;;;491687;240;1429;-73
2021/08/27 02:20:09;;;;;;;;;;;23.60;48.20;;;;;;491608;240;2168;-73
2021/08/27 02:22:11;;;;;;;;;;;23.40;48.30;;;;;;491591;240;1103;-73
2021/08/27 02:24:12;;;;;;;;;;;23.20;48.70;;;;;;491622;240;1185;-73
2021/08/27 02:26:14;;;;;;;;;;;23.00;49.20;;;;;;491519;240;1320;-73
2021/08/27 02:28:15;;;;;;;;;;;23.10;49.20;;;;;;491587;240;993;-73
2021/08/27 02:30:17;;;;;;;;;;;23.20;49.40;;;;;;491628;240;1039;-73
2021/08/27 02:32:18;;;;;;;;;;;23.30;48.90;;;;;;491540;240;1225;-73
2021/08/27 02:34:19;;;;;;;;;;;23.30;48.60;;;;;;491613;240;971;-73
2021/08/27 02:36:20;;;;;;;;;;;23.40;48.90;;;;;;491533;240;1101;-72
2021/08/27 02:38:22;;;;;;;;;;;23.00;49.60;;;;;;491529;240;1155;-73
2021/08/27 02:40:23;;;;;;;;;;;23.50;48.60;;;;;;491564;240;2191;-73
2021/08/27 02:42:27;;;;;;;;;;;23.80;48.10;;;;;;491579;240;1092;-73
2021/08/27 02:44:26;;;;;;;;;;;23.70;48.10;;;;;;491723;240;1250;-73
2021/08/27 02:46:27;;;;;;;;;;;23.40;48.60;;;;;;491530;240;1111;-73
2021/08/27 02:48:29;;;;;;;;;;;23.70;48.00;;;;;;491548;240;1176;-73
2021/08/27 02:50:30;;;;;;;;;;;23.40;49.00;;;;;;491612;240;1232;-73
2021/08/27 02:52:32;;;;;;;;;;;23.60;47.80;;;;;;491445;240;1161;-73
2021/08/27 02:54:33;;;;;;;;;;;23.70;48.40;;;;;;491609;240;1206;-73
2021/08/27 02:56:34;;;;;;;;;;;24.10;47.30;;;;;;491517;240;1227;-73
2021/08/27 02:58:36;;;;;;;;;;;23.60;48.20;;;;;;491548;240;1103;-73
2021/08/27 03:00:37;;;;;;;;;;;23.80;48.20;;;;;;491539;240;2171;-73
2021/08/27 03:02:38;;;;;;;;;;;23.40;48.70;;;;;;491488;240;1169;-73
2021/08/27 03:04:40;;;;;;;;;;;24.10;47.50;;;;;;491612;240;1038;-73
2021/08/27 03:06:42;;;;;;;;;;;24.40;46.70;;;;;;491396;240;1236;-73
2021/08/27 03:08:43;;;;;;;;;;;24.30;46.70;;;;;;491632;240;1159;-73
2021/08/27 03:10:44;;;;;;;;;;;23.80;47.70;;;;;;491719;240;1234;-73
2021/08/27 03:12:46;;;;;;;;;;;23.60;48.20;;;;;;491547;240;1135;-73
2021/08/27 03:14:47;;;;;;;;;;;23.70;47.70;;;;;;491647;240;1045;-73
2021/08/27 03:16:48;;;;;;;;;;;23.90;48.20;;;;;;491569;240;1192;-73
2021/08/27 03:18:51;;;;;;;;;;;24.10;47.10;;;;;;491555;240;1006;-73
2021/08/27 03:20:51;;;;;;;;;;;23.80;48.10;;;;;;491490;240;2179;-73
2021/08/27 03:22:52;;;;;;;;;;;23.90;48.10;;;;;;491551;240;1159;-73
2021/08/27 03:24:54;;;;;;;;;;;24.10;47.50;;;;;;491537;240;1172;-73
2021/08/27 03:26:55;;;;;;;;;;;24.60;46.50;;;;;;491606;240;1257;-73
2021/08/27 03:28:56;;;;;;;;;;;24.80;46.00;;;;;;491526;240;975;-73
2021/08/27 03:30:58;;;;;;;;;;;24.80;45.70;;;;;;491471;240;1221;-73
2021/08/27 03:32:59;;;;;;;;;;;24.70;46.00;;;;;;491530;240;1108;-73
2021/08/27 03:35:00;;;;;;;;;;;24.80;46.00;;;;;;491584;240;1013;-73
2021/08/27 03:37:02;;;;;;;;;;;24.60;46.10;;;;;;491452;240;1367;-73
2021/08/27 03:39:03;;;;;;;;;;;24.50;46.30;;;;;;491590;240;1188;-73
2021/08/27 03:41:04;;;;;;;;;;;24.50;46.50;;;;;;491572;240;2180;-73
2021/08/27 03:43:06;;;;;;;;;;;24.60;46.20;;;;;;491608;240;1079;-73
2021/08/27 03:45:07;;;;;;;;;;;24.70;45.80;;;;;;491678;240;1103;-73
2021/08/27 03:47:08;;;;;;;;;;;24.60;46.40;;;;;;491640;240;1091;-73
2021/08/27 03:49:11;;;;;;;;;;;24.50;45.90;;;;;;491533;240;1111;-73
2021/08/27 03:51:11;;;;;;;;;;;24.60;46.30;;;;;;491603;240;1419;-73
2021/08/27 03:53:12;;;;;;;;;;;24.90;45.70;;;;;;491587;240;1191;-73
2021/08/27 03:55:14;;;;;;;;;;;24.50;46.40;;;;;;491657;240;1150;-73
2021/08/27 03:57:15;;;;;;;;;;;24.90;45.40;;;;;;491521;240;1083;-73
2021/08/27 03:59:16;;;;;;;;;;;24.70;46.10;;;;;;491579;240;1104;-73
2021/08/27 04:01:18;;;;;;;;;;;24.60;46.30;;;;;;491416;240;2199;-73
2021/08/27 04:03:19;;;;;;;;;;;24.80;45.90;;;;;;491481;240;1179;-73
2021/08/27 04:05:20;;;;;;;;;;;24.90;45.70;;;;;;491496;240;1345;-73
2021/08/27 04:07:22;;;;;;;;;;;24.50;45.70;;;;;;491421;240;1182;-73
2021/08/27 04:09:23;;;;;;;;;;;23.20;48.80;;;;;;491557;240;1207;-73
2021/08/27 04:11:24;;;;;;;;;;;22.60;50.70;;;;;;491476;240;1079;-73
2021/08/27 04:13:26;;;;;;;;;;;22.20;51.80;;;;;;491491;240;1197;-73
2021/08/27 04:15:27;;;;;;;;;;;22.00;52.50;;;;;;491548;240;1284;-73
2021/08/27 04:17:28;;;;;;;;;;;21.80;52.90;;;;;;491451;240;1206;-72
2021/08/27 04:19:30;;;;;;;;;;;21.70;53.20;;;;;;491531;240;1034;-72
2021/08/27 04:21:31;;;;;;;;;;;21.60;53.40;;;;;;491448;240;2187;-72
2021/08/27 04:23:32;;;;;;;;;;;21.60;53.70;;;;;;491564;240;1256;-72
2021/08/27 04:25:34;;;;;;;;;;;21.60;53.80;;;;;;490950;240;1177;-72
2021/08/27 04:27:35;;;;;;;;;;;21.40;53.90;;;;;;491466;240;1119;-72
2021/08/27 04:29:36;;;;;;;;;;;21.50;54.20;;;;;;491512;240;1010;-72
2021/08/27 04:31:38;;;;;;;;;;;21.40;54.20;;;;;;491425;240;1218;-72
2021/08/27 04:33:39;;;;;;;;;;;21.40;54.30;;;;;;491502;240;1102;-72
2021/08/27 04:35:40;;;;;;;;;;;21.30;54.40;;;;;;491482;240;1029;-73
2021/08/27 04:37:42;;;;;;;;;;;21.30;54.50;;;;;;491408;240;1208;-72
2021/08/27 04:39:43;;;;;;;;;;;21.30;54.60;;;;;;491409;240;1357;-72
2021/08/27 04:41:44;;;;;;;;;;;21.30;54.70;;;;;;491343;240;2188;-72
2021/08/27 04:43:48;;;;;;;;;;;21.30;54.70;;;;;;491388;240;1101;-72
2021/08/27 04:45:47;;;;;;;;;;;21.20;54.70;;;;;;491414;240;1512;-72
2021/08/27 04:47:48;;;;;;;;;;;21.20;54.80;;;;;;491410;240;1122;-72
2021/08/27 04:49:50;;;;;;;;;;;21.20;54.80;;;;;;491452;240;1049;-72
2021/08/27 04:51:51;;;;;;;;;;;21.20;54.80;;;;;;491350;240;1212;-73
2021/08/27 04:53:52;;;;;;;;;;;21.10;54.80;;;;;;491505;240;1063;-73
2021/08/27 04:55:54;;;;;;;;;;;21.20;54.80;;;;;;491448;240;1212;-73
2021/08/27 04:57:55;;;;;;;;;;;21.20;54.90;;;;;;491405;240;1073;-73
2021/08/27 04:59:56;;;;;;;;;;;21.20;55.00;;;;;;491467;240;1025;-73
2021/08/27 05:01:59;;;;;;;;;;;21.20;55.00;;;;;;491330;240;2188;-73
2021/08/27 05:04:01;;;;;;;;;;;21.10;55.00;;;;;;491433;240;1031;-73
2021/08/27 05:06:02;;;;;;;;;;;21.10;55.20;;;;;;491383;240;1433;-73
2021/08/27 05:08:03;;;;;;;;;;;21.10;55.10;;;;;;491400;240;1274;-72
2021/08/27 05:10:04;;;;;;;;;;;21.00;55.20;;;;;;491372;240;1193;-72
2021/08/27 05:12:06;;;;;;;;;;;21.20;55.10;;;;;;491267;240;1196;-73
2021/08/27 05:14:07;;;;;;;;;;;21.10;55.10;;;;;;491374;240;1053;-73
2021/08/27 05:16:08;;;;;;;;;;;21.10;55.10;;;;;;491310;240;1226;-73
2021/08/27 05:18:10;;;;;;;;;;;21.10;55.10;;;;;;491420;240;1201;-73
2021/08/27 05:20:11;;;;;;;;;;;21.10;55.30;;;;;;491344;240;1065;-73
2021/08/27 05:22:12;;;;;;;;;;;21.10;55.10;;;;;;491235;240;2192;-73
2021/08/27 05:24:14;;;;;;;;;;;21.10;55.10;;;;;;491317;240;1268;-73
2021/08/27 05:26:15;;;;;;;;;;;21.10;55.10;;;;;;491256;240;1337;-73
2021/08/27 05:28:16;;;;;;;;;;;21.10;55.10;;;;;;491264;240;1182;-73
2021/08/27 05:30:18;;;;;;;;;;;21.10;55.10;;;;;;491211;240;1337;-73
2021/08/27 05:32:20;;;;;;;;;;;21.00;55.10;;;;;;491141;240;1087;-73
2021/08/27 05:34:21;;;;;;;;;;;21.10;55.20;;;;;;491469;240;1053;-72
2021/08/27 05:36:23;;;;;;;;;;;21.00;55.20;;;;;;491349;240;1205;-73
2021/08/27 05:38:24;;;;;;;;;;;21.00;55.40;;;;;;491331;240;1183;-73
2021/08/27 05:40:25;;;;;;;;;;;20.90;55.50;;;;;;491304;240;1253;-73
2021/08/27 05:42:27;;;;;;;;;;;20.90;55.70;;;;;;491249;240;2144;-73
2021/08/27 05:44:28;;;;;;;;;;;20.80;55.70;;;;;;491341;240;1052;-73
2021/08/27 05:46:29;;;;;;;;;;;20.80;55.90;;;;;;491260;240;1251;-72
2021/08/27 05:48:31;;;;;;;;;;;20.70;55.80;;;;;;491285;240;1097;-73
2021/08/27 05:50:33;;;;;;;;;;;20.70;55.90;;;;;;491285;240;1184;-73
2021/08/27 05:52:34;;;;;;;;;;;20.80;56.10;;;;;;491063;240;1462;-73
2021/08/27 05:54:35;;;;;;;;;;;20.70;56.20;;;;;;491126;240;1032;-73
2021/08/27 05:56:36;;;;;;;;;;;20.70;56.10;;;;;;491118;240;1309;-73
2021/08/27 05:58:38;;;;;;;;;;;20.80;56.00;;;;;;491250;240;1104;-73
2021/08/27 06:00:39;;;;;;;;;;;20.80;56.00;;;;;;491173;240;1254;-73
2021/08/27 06:02:40;;;;;;;;;;;20.80;55.90;;;;;;491256;240;2132;-73
2021/08/27 06:04:42;;;;;;;;;;;20.80;55.80;;;;;;491209;240;1059;-72
2021/08/27 06:06:43;;;;;;;;;;;20.80;55.80;;;;;;491293;240;1309;-72
2021/08/27 06:08:44;;;;;;;;;;;20.90;55.80;;;;;;490931;240;1203;-73
2021/08/27 06:10:46;;;;;;;;;;;20.80;55.80;;;;;;490809;240;1195;-73
2021/08/27 06:12:47;;;;;;;;;;;20.90;55.80;;;;;;490852;240;1151;-73
2021/08/27 06:14:48;;;;;;;;;;;20.90;55.80;;;;;;490759;240;1088;-73
2021/08/27 06:16:50;;;;;;;;;;;20.90;55.80;;;;;;490735;240;1274;-73
2021/08/27 06:18:51;;;;;;;;;;;20.90;55.70;;;;;;490791;240;1079;-73
2021/08/27 06:20:52;;;;;;;;;;;20.90;55.80;;;;;;490744;240;1226;-73
2021/08/27 06:22:53;;;;;;;;;;;20.80;55.90;;;;;;491182;240;2203;-73
2021/08/27 06:24:55;;;;;;;;;;;20.90;55.90;;;;;;491251;240;1180;-73
2021/08/27 06:26:56;;;;;;;;;;;20.80;55.90;;;;;;491663;240;1160;-73
2021/08/27 06:28:58;;;;;;;;;;;20.90;56.00;;;;;;491295;240;892;-73
2021/08/27 06:30:59;;;;;;;;;;;20.80;56.00;;;;;;491637;240;1467;-73
2021/08/27 06:33:00;;;;;;;;;;;20.80;56.10;;;;;;490782;240;1112;-73
2021/08/27 06:35:01;;;;;;;;;;;20.80;56.20;;;;;;490826;240;1058;-73
2021/08/27 06:37:03;;;;;;;;;;;20.80;56.10;;;;;;490822;240;1089;-73
2021/08/27 06:39:04;;;;;;;;;;;20.90;56.20;;;;;;490849;240;1085;-73
2021/08/27 06:41:05;;;;;;;;;;;20.90;56.20;;;;;;490835;240;1108;-73
2021/08/27 06:43:07;;;;;;;;;;;20.80;56.10;;;;;;490805;240;2188;-74
2021/08/27 06:45:08;;;;;;;;;;;20.80;56.20;;;;;;490667;240;1073;-72
2021/08/27 06:47:09;;;;;;;;;;;20.90;56.30;;;;;;490681;240;1220;-73
2021/08/27 06:49:11;;;;;;;;;;;20.80;56.30;;;;;;490752;240;1111;-73
2021/08/27 06:51:13;;;;;;;;;;;20.80;56.30;;;;;;490717;240;1142;-73
2021/08/27 06:53:14;;;;;;;;;;;20.80;56.30;;;;;;490687;240;1113;-72
2021/08/27 06:55:15;;;;;;;;;;;20.80;56.30;;;;;;490676;240;1019;-73
2021/08/27 06:57:17;;;;;;;;;;;20.90;56.30;;;;;;490664;240;1480;-73
2021/08/27 06:59:18;;;;;;;;;;;20.90;56.30;;;;;;490754;240;1062;-73
2021/08/27 07:01:19;;;;;;;;;;;20.90;56.10;;;;;;490840;240;1149;-73
2021/08/27 07:03:21;;;;;;;;;;;21.00;56.00;;;;;;490776;240;2183;-73
2021/08/27 07:05:22;;;;;;;;;;;21.10;56.00;;;;;;490649;240;1536;-73
2021/08/27 07:07:23;;;;;;;;;;;21.00;55.90;;;;;;490930;240;1139;-73
2021/08/27 07:09:25;;;;;;;;;;;21.10;55.80;;;;;;491240;240;726;-73
2021/08/27 07:11:26;;;;;;;;;;;21.10;55.80;;;;;;490972;240;1042;-73
2021/08/27 07:13:27;;;;;;;;;;;21.10;55.80;;;;;;491378;240;1034;-73
2021/08/27 07:15:29;;;;;;;;;;;21.00;55.90;;;;;;490950;240;1420;-73
2021/08/27 07:17:30;;;;;;;;;;;21.00;56.00;;;;;;490946;240;1203;-73
2021/08/27 07:19:31;;;;;;;;;;;20.90;56.10;;;;;;491019;240;853;-73
2021/08/27 07:21:33;;;;;;;;;;;21.00;56.10;;;;;;491123;240;1027;-73
2021/08/27 07:23:34;;;;;;;;;;;20.90;56.10;;;;;;490951;240;2172;-73
2021/08/27 07:25:35;;;;;;;;;;;20.90;56.20;;;;;;490980;240;696;-73
2021/08/27 07:27:36;;;;;;;;;;;20.90;56.30;;;;;;491014;240;1044;-73
2021/08/27 07:29:38;;;;;;;;;;;20.90;56.40;;;;;;491393;240;1238;-73
2021/08/27 07:31:39;;;;;;;;;;;20.90;56.40;;;;;;490919;240;1123;-73
2021/08/27 07:33:40;;;;;;;;;;;20.90;56.30;;;;;;491441;240;1004;-73
2021/08/27 07:35:42;;;;;;;;;;;20.90;56.40;;;;;;491403;240;748;-73
2021/08/27 07:37:43;;;;;;;;;;;20.90;56.40;;;;;;491409;240;988;-73
2021/08/27 07:39:44;;;;;;;;;;;20.90;56.50;;;;;;491272;240;682;-73
2021/08/27 07:41:46;;;;;;;;;;;20.80;56.60;;;;;;490831;240;1086;-73
2021/08/27 07:43:47;;;;;;;;;;;20.90;56.60;;;;;;490894;240;2176;-73
2021/08/27 07:45:54;;;;;;;;;;;20.80;56.50;;;;;;490234;240;1190;-73
2021/08/27 07:47:50;;;;;;;;;;;20.90;56.50;;;;;;490501;240;1547;-73
2021/08/27 07:49:51;;;;;;;;;;;20.90;56.50;;;;;;490418;240;1377;-73
2021/08/27 07:51:53;;;;;;;;;;;20.90;56.50;;;;;;490424;240;1095;-73
2021/08/27 07:53:54;;;;;;;;;;;20.80;56.50;;;;;;490415;240;1373;-73
2021/08/27 07:55:55;;;;;;;;;;;20.90;56.50;;;;;;490431;242;1209;-73
2021/08/27 07:57:56;;;;;;;;;;;20.90;56.50;;;;;;490651;240;1206;-73
2021/08/27 07:59:58;;;;;;;;;;;20.90;56.40;;;;;;490764;240;762;-73
2021/08/27 08:01:59;;;;;;;;;;;20.90;56.40;;;;;;490737;240;1103;-73
2021/08/27 08:04:01;;;;;;;;;;;20.90;56.30;;;;;;491293;240;2171;-73
2021/08/27 08:06:02;;;;;;;;;;;20.90;56.40;;;;;;491317;240;1518;-73
2021/08/27 08:08:03;;;;;;;;;;;20.90;56.30;;;;;;490867;240;1043;-73
2021/08/27 08:10:05;;;;;;;;;;;20.90;56.40;;;;;;490895;240;746;-73
2021/08/27 08:12:06;;;;;;;;;;;20.90;56.40;;;;;;490792;240;1189;-73
2021/08/27 08:14:07;;;;;;;;;;;20.90;56.50;;;;;;490863;240;1077;-73
2021/08/27 08:16:09;;;;;;;;;;;20.90;56.50;;;;;;490667;240;1189;-73
2021/08/27 08:18:10;;;;;;;;;;;20.90;56.50;;;;;;490754;240;1210;-73
2021/08/27 08:20:11;;;;;;;;;;;20.90;56.40;;;;;;490746;240;1272;-73
2021/08/27 08:22:12;;;;;;;;;;;20.80;56.50;;;;;;490903;240;2184;-73
2021/08/27 08:24:14;;;;;;;;;;;20.90;56.50;;;;;;491377;240;1424;-73
2021/08/27 08:26:15;;;;;;;;;;;20.90;56.40;;;;;;491118;240;1202;-73
2021/08/27 08:28:16;;;;;;;;;;;20.90;56.40;;;;;;490928;240;1042;-73
2021/08/27 08:30:18;;;;;;;;;;;20.90;56.20;;;;;;491284;240;633;-73
2021/08/27 08:32:19;;;;;;;;;;;21.00;56.00;;;;;;490840;240;1056;-73
2021/08/27 08:34:20;;;;;;;;;;;21.20;55.50;;;;;;490883;240;1175;-73
2021/08/27 08:36:22;;;;;;;;;;;21.40;55.10;;;;;;491275;240;1447;-73
2021/08/27 08:38:24;;;;;;;;;;;21.50;54.70;;;;;;490812;240;1022;-73
2021/08/27 08:40:24;;;;;;;;;;;21.80;54.00;;;;;;490742;240;1343;-73
2021/08/27 08:42:26;;;;;;;;;;;21.70;54.00;;;;;;491209;240;2195;-73
2021/08/27 08:44:27;;;;;;;;;;;21.70;53.70;;;;;;490846;240;815;-73
2021/08/27 08:46:28;;;;;;;;;;;21.70;53.80;;;;;;490795;240;1503;-73
2021/08/27 08:48:30;;;;;;;;;;;21.70;53.80;;;;;;490955;240;1096;-73
2021/08/27 08:50:31;;;;;;;;;;;21.80;53.60;;;;;;491038;240;673;-73
2021/08/27 08:52:32;;;;;;;;;;;22.00;53.10;;;;;;490945;240;1131;-73
2021/08/27 08:54:34;;;;;;;;;;;22.00;53.30;;;;;;491583;240;1185;-73
2021/08/27 08:56:35;;;;;;;;;;;22.10;53.10;;;;;;491290;240;1523;-73
2021/08/27 08:58:36;;;;;;;;;;;21.90;53.40;;;;;;490874;240;845;-73
2021/08/27 09:00:37;;;;;;;;;;;21.80;53.60;;;;;;491424;240;1543;-73
2021/08/27 09:02:39;;;;;;;;;;;21.70;53.90;;;;;;490811;240;2191;-74
2021/08/27 09:04:40;;;;;;;;;;;21.60;54.10;;;;;;490623;240;1277;-73
2021/08/27 09:06:41;;;;;;;;;;;21.60;54.30;;;;;;490549;240;1226;-73
2021/08/27 09:08:43;;;;;;;;;;;21.70;54.20;;;;;;490702;240;1074;-73
2021/08/27 09:10:44;;;;;;;;;;;21.70;54.20;;;;;;490661;240;1206;-73
2021/08/27 09:12:45;;;;;;;;;;;21.60;54.50;;;;;;490659;240;1191;-73
2021/08/27 09:14:47;;;;;;;;;;;21.70;54.40;;;;;;490665;240;1188;-73
2021/08/27 09:16:48;;;;;;;;;;;21.70;54.30;;;;;;490531;240;1227;-73
2021/08/27 09:18:49;;;;;;;;;;;21.80;54.10;;;;;;490624;240;1178;-73
2021/08/27 09:20:51;;;;;;;;;;;21.80;54.10;;;;;;490633;240;1038;-73
2021/08/27 09:22:52;;;;;;;;;;;21.70;54.10;;;;;;490635;240;2160;-73
2021/08/27 09:24:53;;;;;;;;;;;21.70;54.00;;;;;;490542;240;1130;-73
2021/08/27 09:26:56;;;;;;;;;;;21.70;53.80;;;;;;490551;240;1092;-73
2021/08/27 09:28:57;;;;;;;;;;;21.70;53.80;;;;;;490728;240;1138;-73
2021/08/27 09:30:58;;;;;;;;;;;21.80;53.70;;;;;;491053;240;1036;-73
2021/08/27 09:33:00;;;;;;;;;;;21.70;53.70;;;;;;489893;240;1234;-73
2021/08/27 09:35:01;;;;;;;;;;;21.70;53.70;;;;;;490981;240;1189;-73
2021/08/27 09:37:02;;;;;;;;;;;21.80;53.70;;;;;;491008;240;1036;-73
2021/08/27 09:39:03;;;;;;;;;;;21.70;53.60;;;;;;491507;240;782;-73
2021/08/27 09:41:05;;;;;;;;;;;21.80;53.40;;;;;;490918;240;1299;-73
2021/08/27 09:43:06;;;;;;;;;;;21.80;53.30;;;;;;491436;240;2188;-73
2021/08/27 09:45:08;;;;;;;;;;;21.90;53.10;;;;;;490977;240;818;-73
2021/08/27 09:47:09;;;;;;;;;;;21.90;53.10;;;;;;490267;240;1307;-73
2021/08/27 09:49:10;;;;;;;;;;;21.90;53.00;;;;;;491135;240;1111;-73
2021/08/27 09:51:12;;;;;;;;;;;21.90;53.10;;;;;;490909;240;1153;-73
2021/08/27 09:53:13;;;;;;;;;;;21.80;53.20;;;;;;491386;240;1059;-73
2021/08/27 09:55:14;;;;;;;;;;;21.80;53.10;;;;;;491368;240;786;-73
2021/08/27 09:57:15;;;;;;;;;;;21.70;53.10;;;;;;491268;240;971;-73
2021/08/27 09:59:17;;;;;;;;;;;21.90;52.90;;;;;;490842;240;841;-73
2021/08/27 10:01:18;;;;;;;;;;;21.80;52.90;;;;;;491229;240;1114;-73
2021/08/27 10:03:20;;;;;;;;;;;21.90;52.90;;;;;;490838;240;2191;-73
2021/08/27 10:05:21;;;;;;;;;;;21.90;52.80;;;;;;490700;240;1095;-73
2021/08/27 10:07:22;;;;;;;;;;;21.90;52.70;;;;;;490910;240;1657;-73
2021/08/27 10:09:24;;;;;;;;;;;21.90;52.70;;;;;;491562;240;751;-73
2021/08/27 10:11:25;;;;;;;;;;;21.90;52.60;;;;;;491054;240;1450;-73
2021/08/27 10:13:26;;;;;;;;;;;21.90;52.80;;;;;;491074;240;834;-73
2021/08/27 10:15:28;;;;;;;;;;;21.90;52.80;;;;;;490904;240;743;-73
2021/08/27 10:17:29;;;;;;;;;;;21.90;52.80;;;;;;490898;240;1354;-73
2021/08/27 10:19:30;;;;;;;;;;;21.90;52.70;;;;;;490835;240;1104;-73
2021/08/27 10:21:32;;;;;;;;;;;21.90;52.70;;;;;;490725;240;1230;-73
2021/08/27 10:23:33;;;;;;;;;;;22.00;52.50;;;;;;490806;240;2179;-73
2021/08/27 10:25:34;;;;;;;;;;;22.30;51.80;;;;;;490897;240;959;-73
2021/08/27 10:27:36;;;;;;;;;;;22.50;51.50;;;;;;490747;240;1103;-73
2021/08/27 10:29:38;;;;;;;;;;;22.50;51.20;;;;;;490664;240;1046;-73
2021/08/27 10:31:40;;;;;;;;;;;22.40;51.40;;;;;;490857;240;1268;-73
2021/08/27 10:33:41;;;;;;;;;;;22.70;51.20;;;;;;491338;240;1182;-73
2021/08/27 10:35:42;;;;;;;;;;;22.70;50.80;;;;;;490714;240;1059;-73
2021/08/27 10:37:44;;;;;;;;;;;22.60;51.10;;;;;;490699;240;1186;-73
2021/08/27 10:39:48;;;;;;;;;;;22.50;51.30;;;;;;490699;240;1041;-73
2021/08/27 10:41:49;;;;;;;;;;;22.60;51.30;;;;;;490647;240;1255;-73
2021/08/27 10:43:50;;;;;;;;;;;22.60;51.10;;;;;;490798;240;2199;-73
2021/08/27 10:45:52;;;;;;;;;;;22.60;51.20;;;;;;490612;240;1031;-73
2021/08/27 10:47:53;;;;;;;;;;;22.60;51.40;;;;;;490631;240;1321;-73
2021/08/27 10:49:54;;;;;;;;;;;22.70;51.20;;;;;;490729;240;1147;-73
2021/08/27 10:51:56;;;;;;;;;;;22.50;51.60;;;;;;490721;240;1098;-73
2021/08/27 10:53:57;;;;;;;;;;;22.50;51.90;;;;;;490696;240;1088;-73
2021/08/27 10:55:58;;;;;;;;;;;22.60;51.70;;;;;;490721;240;1259;-73
2021/08/27 10:58:04;;;;;;;;;;;22.60;52.00;;;;;;490777;240;1060;-73
2021/08/27 11:00:04;;;;;;;;;;;22.60;52.00;;;;;;490741;240;1845;-73
2021/08/27 11:02:06;;;;;;;;;;;22.70;51.80;;;;;;490973;240;1214;-73
2021/08/27 11:04:07;;;;;;;;;;;22.60;52.00;;;;;;491046;240;2192;-73
2021/08/27 11:06:08;;;;;;;;;;;22.70;51.90;;;;;;490840;240;1135;-73
2021/08/27 11:08:10;;;;;;;;;;;22.70;51.60;;;;;;490669;240;1073;-73
2021/08/27 11:10:13;;;;;;;;;;;22.70;51.80;;;;;;490698;240;1092;-73
2021/08/27 11:12:12;;;;;;;;;;;22.80;51.80;;;;;;490669;240;1289;-73
2021/08/27 11:14:13;;;;;;;;;;;22.70;51.80;;;;;;490725;240;1204;-73
2021/08/27 11:16:15;;;;;;;;;;;22.70;52.00;;;;;;490850;240;1236;-73
2021/08/27 11:18:16;;;;;;;;;;;22.70;52.10;;;;;;491128;240;1034;-73
2021/08/27 11:20:17;;;;;;;;;;;22.70;52.00;;;;;;491029;240;1057;-73
2021/08/27 11:22:19;;;;;;;;;;;22.60;52.20;;;;;;490592;240;1257;-73
2021/08/27 11:24:21;;;;;;;;;;;22.60;52.00;;;;;;490624;240;2176;-73
2021/08/27 11:26:21;;;;;;;;;;;22.60;52.00;;;;;;490583;240;1438;-73
2021/08/27 11:28:23;;;;;;;;;;;22.70;51.80;;;;;;490627;240;1163;-73
2021/08/27 11:30:24;;;;;;;;;;;22.80;51.50;;;;;;490639;240;1088;-73
2021/08/27 11:32:25;;;;;;;;;;;22.80;51.50;;;;;;490703;240;1072;-73
2021/08/27 11:34:27;;;;;;;;;;;22.70;51.40;;;;;;490696;240;1060;-73
2021/08/27 11:36:28;;;;;;;;;;;22.80;51.40;;;;;;490578;240;1296;-73
2021/08/27 11:38:29;;;;;;;;;;;22.70;51.40;;;;;;490709;240;1105;-73
2021/08/27 11:40:31;;;;;;;;;;;22.70;51.50;;;;;;490614;240;1055;-73
2021/08/27 11:42:32;;;;;;;;;;;22.60;51.80;;;;;;490622;240;1120;-74
2021/08/27 11:44:42;;;;;;;;;;;22.50;51.90;;;;;;490562;240;2137;-73
2021/08/27 11:46:35;;;;;;;;;;;22.50;52.10;;;;;;490622;240;1329;-73
2021/08/27 11:48:36;;;;;;;;;;;22.40;52.10;;;;;;490666;240;1105;-73
2021/08/27 11:50:38;;;;;;;;;;;22.40;52.30;;;;;;490843;240;1215;-73
2021/08/27 11:52:39;;;;;;;;;;;22.40;52.20;;;;;;490823;240;1440;-73
2021/08/27 11:54:40;;;;;;;;;;;22.40;52.20;;;;;;490692;240;1086;-73
2021/08/27 11:56:42;;;;;;;;;;;22.40;52.10;;;;;;490691;240;1227;-73